Maribel — LAGU6 — position and weather

sailwx.info

Track history (hours):
 
Tides and Currents Weather Stations Pressure Air Temp Water Temp Dewpoint Dewpoint Depression Visibility Wind Speed Wind Dir Waves Ship Positions

Maribel

Last reported at 2015-Apr-21 07:33 UTC. Time now 2015-Apr-21 08:21 UTC.
Position N 51°56' E 004°11'.

Length 227 m; draft 14.2 m.

Type: Tanker. MMSI: 257872000.

Date/timePositionNaut miles runAvg speedWind from/ knotsBaromVisibWave heightAir tempDewpointWater temp
2015-Apr-21 07:33N 51°56' E 004°11'0 0.0
2015-Apr-21 06:29N 51°56' E 004°11'0 0.0
2015-Apr-21 05:23N 51°56' E 004°11'0 0.0
2015-Apr-21 04:31N 51°56' E 004°11'0 0.0
2015-Apr-21 03:28N 51°56' E 004°11'0 0.0
2015-Apr-21 02:30N 51°56' E 004°11'0 0.0
2015-Apr-21 01:33N 51°56' E 004°11'0 0.0
2015-Apr-21 00:33N 51°56' E 004°11'0 0.0
2015-Apr-20 23:32N 51°56' E 004°11'0 0.0
2015-Apr-20 22:32N 51°56' E 004°11'0 0.0
2015-Apr-20 21:31N 51°56' E 004°11'0 0.0
2015-Apr-20 20:31N 51°56' E 004°11'0 0.0
2015-Apr-20 19:31N 51°56' E 004°11'0 0.0
2015-Apr-20 18:30N 51°56' E 004°11'0 0.3
2015-Apr-20 17:34N 51°56' E 004°11'8 8.0
2015-Apr-20 16:33N 52°00' E 003°59'10 9.8
2015-Apr-20 15:33N 51°59' E 003°44'1111.4
2015-Apr-20 14:33N 51°57' E 003°25'8 7.7
2015-Apr-20 13:28N 51°57' E 003°12'0 0.3
2015-Apr-20 12:33N 51°56' E 003°11'0 0.1
2015-Apr-20 11:30N 51°56' E 003°11'0 0.0
2015-Apr-20 10:20N 51°56' E 003°11'0 0.0
2015-Apr-20 09:23N 51°56' E 003°11'0 0.1
2015-Apr-20 08:26N 51°56' E 003°11'0 0.0
2015-Apr-20 07:25N 51°56' E 003°12'0 0.1
2015-Apr-20 06:28N 51°57' E 003°11'0 0.1
2015-Apr-20 05:33N 51°57' E 003°12'0 0.0
2015-Apr-20 04:30N 51°57' E 003°12'0 0.1
2015-Apr-20 03:29N 51°57' E 003°12'0 0.0
2015-Apr-20 02:26N 51°57' E 003°12'0 0.0
2015-Apr-20 01:32N 51°57' E 003°12'0 0.2
2015-Apr-20 00:31N 51°56' E 003°12'0 0.1
2015-Apr-19 23:06N 51°56' E 003°11'0 0.0
2015-Apr-19 22:09N 51°56' E 003°11'0 0.0
2015-Apr-19 20:29N 51°56' E 003°11'0 0.0
2015-Apr-19 19:17N 51°56' E 003°11'2 2.4
2015-Apr-19 18:33N 51°55' E 003°12'15210.6
2015-Apr-19 04:12N 54°18' E 004°36'28212.8
2015-Apr-18 06:08N 57°49' E 010°13'814.0
2015-Apr-18 05:32N 57°49' E 010°29'1212.7
2015-Apr-18 04:33N 57°46' E 010°52'1312.7
2015-Apr-18 03:33N 57°37' E 011°09'1313.4
2015-Apr-18 02:33N 57°27' E 011°26'1413.7
2015-Apr-18 01:33N 57°15' E 011°36'1413.6
2015-Apr-18 00:33N 57°02' E 011°44'1313.2
2015-Apr-17 23:33N 56°49' E 011°51'1212.5
2015-Apr-17 22:33N 56°37' E 011°45'12211.0
2015-Apr-17 11:33N 54°40' E 010°49'1212.3
2015-Apr-17 10:33N 54°36' E 011°09'1312.7
2015-Apr-17 09:33N 54°31' E 011°29'1312.9
2015-Apr-17 08:33N 54°27' E 011°50'1111.2
2015-Apr-17 07:33N 54°27' E 012°09'1010.1
2015-Apr-17 06:33N 54°36' E 012°17'1010.1
2015-Apr-17 05:33N 54°42' E 012°31'1110.5
2015-Apr-17 04:33N 54°47' E 012°47'1413.1
2015-Apr-17 03:31N 54°52' E 013°08'1413.7
2015-Apr-17 02:29N 54°57' E 013°32'1813.6
2015-Apr-17 01:08N 55°04' E 014°02'813.5
2015-Apr-17 00:33N 55°08' E 014°13'1313.3
2015-Apr-16 23:33N 55°15' E 014°33'  
2015-Apr-11 17:12N 55°38' E 015°39'710.6
2015-Apr-11 16:33N 55°36' E 015°28'1110.7
2015-Apr-11 15:33N 55°32' E 015°10'1110.8
2015-Apr-11 14:33N 55°27' E 014°53'1110.8
2015-Apr-11 13:33N 55°22' E 014°36'1111.1
2015-Apr-11 12:33N 55°14' E 014°23'1010.2
2015-Apr-11 11:33N 55°10' E 014°07'1010.1
2015-Apr-11 10:33N 55°11' E 013°49'1010.3
2015-Apr-11 09:33N 55°12' E 013°31'1010.3
2015-Apr-11 08:33N 55°13' E 013°13'1010.3
2015-Apr-11 07:33N 55°14' E 012°55'  
Track history (hours):
 
Tides and Currents Weather Stations Pressure Air Temp Water Temp Dewpoint Dewpoint Depression Visibility Wind Speed Wind Dir Waves Ship Positions

Maribel

Last reported at 2015-Apr-21 07:33 UTC. Time now 2015-Apr-21 08:21 UTC.
Position N 51°56' E 004°11'.

Length 227 m; draft 14.2 m.

Type: Tanker. MMSI: 257872000.

Date/timePositionNaut miles runAvg speedWind from/ knotsBaromVisibWave heightAir tempDewpointWater temp
2015-Apr-21 07:33N 51°56' E 004°11'0 0.0
2015-Apr-21 06:29N 51°56' E 004°11'0 0.0
2015-Apr-21 05:23N 51°56' E 004°11'0 0.0
2015-Apr-21 04:31N 51°56' E 004°11'0 0.0
2015-Apr-21 03:28N 51°56' E 004°11'0 0.0
2015-Apr-21 02:30N 51°56' E 004°11'0 0.0
2015-Apr-21 01:33N 51°56' E 004°11'0 0.0
2015-Apr-21 00:33N 51°56' E 004°11'0 0.0
2015-Apr-20 23:32N 51°56' E 004°11'0 0.0
2015-Apr-20 22:32N 51°56' E 004°11'0 0.0
2015-Apr-20 21:31N 51°56' E 004°11'0 0.0
2015-Apr-20 20:31N 51°56' E 004°11'0 0.0
2015-Apr-20 19:31N 51°56' E 004°11'0 0.0
2015-Apr-20 18:30N 51°56' E 004°11'0 0.3
2015-Apr-20 17:34N 51°56' E 004°11'8 8.0
2015-Apr-20 16:33N 52°00' E 003°59'10 9.8
2015-Apr-20 15:33N 51°59' E 003°44'1111.4
2015-Apr-20 14:33N 51°57' E 003°25'8 7.7
2015-Apr-20 13:28N 51°57' E 003°12'0 0.3
2015-Apr-20 12:33N 51°56' E 003°11'0 0.1
2015-Apr-20 11:30N 51°56' E 003°11'0 0.0
2015-Apr-20 10:20N 51°56' E 003°11'0 0.0
2015-Apr-20 09:23N 51°56' E 003°11'0 0.1
2015-Apr-20 08:26N 51°56' E 003°11'0 0.0
2015-Apr-20 07:25N 51°56' E 003°12'0 0.1
2015-Apr-20 06:28N 51°57' E 003°11'0 0.1
2015-Apr-20 05:33N 51°57' E 003°12'0 0.0
2015-Apr-20 04:30N 51°57' E 003°12'0 0.1
2015-Apr-20 03:29N 51°57' E 003°12'0 0.0
2015-Apr-20 02:26N 51°57' E 003°12'0 0.0
2015-Apr-20 01:32N 51°57' E 003°12'0 0.2
2015-Apr-20 00:31N 51°56' E 003°12'0 0.1
2015-Apr-19 23:06N 51°56' E 003°11'0 0.0
2015-Apr-19 22:09N 51°56' E 003°11'0 0.0
2015-Apr-19 20:29N 51°56' E 003°11'0 0.0
2015-Apr-19 19:17N 51°56' E 003°11'2 2.4
2015-Apr-19 18:33N 51°55' E 003°12'15210.6
2015-Apr-19 04:12N 54°18' E 004°36'28212.8
2015-Apr-18 06:08N 57°49' E 010°13'814.0
2015-Apr-18 05:32N 57°49' E 010°29'1212.7
2015-Apr-18 04:33N 57°46' E 010°52'1312.7
2015-Apr-18 03:33N 57°37' E 011°09'1313.4
2015-Apr-18 02:33N 57°27' E 011°26'1413.7
2015-Apr-18 01:33N 57°15' E 011°36'1413.6
2015-Apr-18 00:33N 57°02' E 011°44'1313.2
2015-Apr-17 23:33N 56°49' E 011°51'1212.5
2015-Apr-17 22:33N 56°37' E 011°45'12211.0
2015-Apr-17 11:33N 54°40' E 010°49'1212.3
2015-Apr-17 10:33N 54°36' E 011°09'1312.7
2015-Apr-17 09:33N 54°31' E 011°29'1312.9
2015-Apr-17 08:33N 54°27' E 011°50'1111.2
2015-Apr-17 07:33N 54°27' E 012°09'1010.1
2015-Apr-17 06:33N 54°36' E 012°17'1010.1
2015-Apr-17 05:33N 54°42' E 012°31'1110.5
2015-Apr-17 04:33N 54°47' E 012°47'1413.1
2015-Apr-17 03:31N 54°52' E 013°08'1413.7
2015-Apr-17 02:29N 54°57' E 013°32'1813.6
2015-Apr-17 01:08N 55°04' E 014°02'813.5
2015-Apr-17 00:33N 55°08' E 014°13'1313.3
2015-Apr-16 23:33N 55°15' E 014°33'  
2015-Apr-11 17:12N 55°38' E 015°39'710.6
2015-Apr-11 16:33N 55°36' E 015°28'1110.7
2015-Apr-11 15:33N 55°32' E 015°10'1110.8
2015-Apr-11 14:33N 55°27' E 014°53'1110.8
2015-Apr-11 13:33N 55°22' E 014°36'1111.1
2015-Apr-11 12:33N 55°14' E 014°23'1010.2
2015-Apr-11 11:33N 55°10' E 014°07'1010.1
2015-Apr-11 10:33N 55°11' E 013°49'1010.3
2015-Apr-11 09:33N 55°12' E 013°31'1010.3
2015-Apr-11 08:33N 55°13' E 013°13'1010.3
2015-Apr-11 07:33N 55°14' E 012°55'  

Dump ship's entire track history